Time;durP1;ratioP1;P1;durP2;ratioP2;P2;SDS_P1;SDS_P2;PMS_P1;PMS_P2;Temp;Humidity;BMP_temperature;BMP_pressure;BME280_temperature;BME280_humidity;BME280_pressure;Samples;Min_cycle;Max_cycle;Signal;HPM_P1;HPM_P2
2021/05/14 00:00:02;;;;;;;3.07;2.30;;;11.20;99.90;;;;;;4991877;28;20433;-68
2021/05/14 00:02:35;;;;;;;3.30;2.87;;;11.20;99.90;;;;;;4991630;28;20451;-68
2021/05/14 00:05:03;;;;;;;3.70;3.30;;;11.10;99.90;;;;;;4991633;28;20422;-68
2021/05/14 00:07:30;;;;;;;3.77;2.40;;;11.00;99.90;;;;;;4991873;28;20422;-68
2021/05/14 00:09:58;;;;;;;5.00;2.73;;;10.90;99.90;;;;;;4991629;28;20776;-68
2021/05/14 00:12:27;;;;;;;5.00;3.10;;;10.90;99.90;;;;;;4991454;28;20579;-68
2021/05/14 00:14:54;;;;;;;2.80;2.60;;;10.90;99.90;;;;;;4991770;28;20764;-67
2021/05/14 00:17:22;;;;;;;2.53;2.30;;;10.90;99.90;;;;;;4991630;28;20764;-68
2021/05/14 00:19:50;;;;;;;3.00;2.20;;;11.10;99.90;;;;;;4991618;28;20377;-68
2021/05/14 00:22:17;;;;;;;2.87;2.43;;;11.00;99.90;;;;;;4990819;28;20531;-68
2021/05/14 00:24:46;;;;;;;2.93;2.17;;;11.00;99.90;;;;;;4991340;28;20885;-68
2021/05/14 00:27:14;;;;;;;2.53;2.03;;;11.00;99.90;;;;;;4991582;28;20922;-68
2021/05/14 00:29:42;;;;;;;2.10;1.85;;;11.00;99.90;;;;;;4992159;28;20764;-67
2021/05/14 00:32:10;;;;;;;2.30;1.95;;;11.00;99.90;;;;;;4991858;28;20674;-67
2021/05/14 00:34:38;;;;;;;1.50;1.40;;;11.00;99.90;;;;;;4991707;28;20222;-67
2021/05/14 00:37:05;;;;;;;3.07;2.17;;;10.90;99.90;;;;;;4991813;28;20430;-68
2021/05/14 00:39:33;;;;;;;2.90;1.77;;;10.90;99.90;;;;;;4991612;28;20828;-68
2021/05/14 00:42:00;;;;;;;1.50;1.40;;;10.90;99.90;;;;;;4991363;28;20444;-68
2021/05/14 00:44:30;;;;;;;2.53;1.50;;;10.90;99.90;;;;;;4991614;28;20461;-67
2021/05/14 00:46:59;;;;;;;1.37;1.20;;;11.00;99.90;;;;;;4991603;28;20411;-68
2021/05/14 00:49:28;;;;;;;2.43;1.40;;;10.90;99.90;;;;;;4991798;28;20414;-67
2021/05/14 00:51:56;;;;;;;3.07;1.40;;;11.00;99.90;;;;;;4991714;28;20487;-67
2021/05/14 00:54:27;;;;;;;2.97;1.80;;;11.00;99.90;;;;;;4991454;28;20845;-68
2021/05/14 00:56:55;;;;;;;1.83;0.90;;;11.00;99.90;;;;;;4990925;28;20795;-68
2021/05/14 00:59:23;;;;;;;1.40;1.20;;;11.00;99.90;;;;;;4991364;28;20521;-68
2021/05/14 01:01:51;;;;;;;2.47;1.53;;;10.90;99.90;;;;;;4990973;28;20548;-68
2021/05/14 01:04:20;;;;;;;2.20;1.10;;;10.90;99.90;;;;;;4991192;28;20762;-67
2021/05/14 01:06:47;;;;;;;1.60;1.30;;;10.90;99.90;;;;;;4989820;28;20656;-67
2021/05/14 01:09:15;;;;;;;1.50;1.37;;;10.90;99.90;;;;;;4991786;28;20430;-68
2021/05/14 01:11:43;;;;;;;1.80;1.50;;;10.90;99.90;;;;;;4991712;28;20912;-68
2021/05/14 01:14:11;;;;;;;1.77;1.27;;;11.00;99.90;;;;;;4991767;28;20905;-68
2021/05/14 01:16:38;;;;;;;2.10;1.20;;;11.00;99.90;;;;;;4991381;28;20487;-68
2021/05/14 01:19:06;;;;;;;1.13;0.90;;;10.90;99.90;;;;;;4991432;28;20778;-68
2021/05/14 01:21:35;;;;;;;1.67;1.27;;;10.90;99.90;;;;;;4990913;28;20392;-69
2021/05/14 01:24:04;;;;;;;1.43;1.10;;;10.90;99.90;;;;;;4990922;28;20937;-68
2021/05/14 01:26:32;;;;;;;1.93;1.33;;;10.80;99.90;;;;;;4991406;28;20392;-69
2021/05/14 01:29:00;;;;;;;1.40;1.25;;;10.90;99.90;;;;;;4990911;28;20710;-68
2021/05/14 01:31:28;;;;;;;2.03;1.40;;;10.80;99.90;;;;;;4991147;28;20660;-68
2021/05/14 01:33:56;;;;;;;1.98;1.67;;;10.80;99.90;;;;;;4989340;28;20479;-68
2021/05/14 01:36:23;;;;;;;1.83;1.20;;;10.80;99.90;;;;;;4990915;28;20195;-68
2021/05/14 01:38:52;;;;;;;2.03;1.48;;;10.70;99.90;;;;;;4990989;28;20414;-68
2021/05/14 01:41:19;;;;;;;1.20;1.02;;;10.70;99.90;;;;;;4990470;28;20183;-68
2021/05/14 01:43:47;;;;;;;1.30;1.20;;;10.70;99.90;;;;;;4990282;28;20233;-68
2021/05/14 01:46:15;;;;;;;1.33;1.10;;;10.70;99.90;;;;;;4990911;28;20190;-68
2021/05/14 01:48:42;;;;;;;2.00;1.80;;;10.70;99.90;;;;;;4990737;28;20411;-68
2021/05/14 01:51:16;;;;;;;1.80;1.35;;;10.70;99.90;;;;;;4991193;28;20637;-68
2021/05/14 01:53:44;;;;;;;1.35;1.17;;;10.70;99.90;;;;;;4990505;28;20239;-68
2021/05/14 01:56:12;;;;;;;1.45;1.35;;;10.70;99.90;;;;;;4990740;28;20195;-68
2021/05/14 01:58:40;;;;;;;1.75;1.00;;;10.60;99.90;;;;;;4990739;28;20245;-68
2021/05/14 02:01:08;;;;;;;2.60;1.77;;;10.60;99.90;;;;;;4990551;28;20616;-68
2021/05/14 02:03:36;;;;;;;1.67;1.58;;;10.50;99.90;;;;;;4990242;28;20221;-68
2021/05/14 02:06:04;;;;;;;1.95;1.52;;;10.60;99.90;;;;;;4990506;28;20210;-68
2021/05/14 02:08:32;;;;;;;1.70;1.33;;;10.50;99.90;;;;;;4993729;28;20660;-69
2021/05/14 02:11:02;;;;;;;1.80;1.65;;;10.50;99.90;;;;;;4993901;28;20191;-67
2021/05/14 02:13:30;;;;;;;1.60;1.50;;;10.50;99.90;;;;;;4993686;28;20207;-67
2021/05/14 02:15:58;;;;;;;1.75;1.35;;;10.50;99.90;;;;;;4993967;28;20194;-67
2021/05/14 02:18:25;;;;;;;1.67;1.57;;;10.50;99.90;;;;;;4994029;28;20195;-68
2021/05/14 02:20:53;;;;;;;2.37;2.17;;;10.50;99.90;;;;;;4992274;28;20441;-66
2021/05/14 02:23:20;;;;;;;2.45;1.75;;;10.50;99.90;;;;;;5042191;22;20593;-64
2021/05/14 02:25:48;;;;;;;2.28;1.88;;;10.50;99.90;;;;;;5033641;28;20248;-64
2021/05/14 02:28:16;;;;;;;2.23;1.83;;;10.50;99.90;;;;;;5033566;28;20597;-64
2021/05/14 02:30:45;;;;;;;2.35;2.00;;;10.50;99.90;;;;;;5033530;28;20432;-65
2021/05/14 02:33:13;;;;;;;1.90;1.63;;;10.50;99.90;;;;;;5034494;28;20266;-63
2021/05/14 02:35:41;;;;;;;2.17;1.73;;;10.50;99.90;;;;;;5034188;28;20414;-64
2021/05/14 02:38:09;;;;;;;2.10;1.75;;;10.60;99.90;;;;;;5034226;28;20181;-64
2021/05/14 02:40:36;;;;;;;1.50;1.33;;;10.60;99.90;;;;;;5033694;28;20193;-65
2021/05/14 02:43:04;;;;;;;3.07;2.13;;;10.50;99.90;;;;;;5031973;28;20213;-65
2021/05/14 02:45:32;;;;;;;2.85;1.92;;;10.60;99.90;;;;;;5033737;28;20398;-64
2021/05/14 02:48:01;;;;;;;1.80;1.38;;;10.50;99.90;;;;;;5033148;28;20201;-65
2021/05/14 02:50:28;;;;;;;2.83;2.30;;;10.50;99.90;;;;;;5033647;28;20193;-65
2021/05/14 02:52:56;;;;;;;2.73;2.53;;;10.50;99.90;;;;;;5033412;28;20700;-67
2021/05/14 02:55:24;;;;;;;2.20;2.00;;;10.50;99.90;;;;;;5033864;28;20424;-65
2021/05/14 02:57:53;;;;;;;2.47;1.92;;;10.50;99.90;;;;;;5034394;28;20181;-64
2021/05/14 03:00:22;;;;;;;2.83;2.37;;;10.50;99.90;;;;;;5034215;28;20264;-65
2021/05/14 03:02:50;;;;;;;2.37;2.10;;;10.60;99.90;;;;;;5033568;28;20464;-66
2021/05/14 03:05:19;;;;;;;3.67;2.33;;;10.60;99.90;;;;;;5033916;28;20486;-65
2021/05/14 03:07:46;;;;;;;3.77;2.33;;;10.60;99.90;;;;;;5032649;28;20193;-66
2021/05/14 03:10:14;;;;;;;2.50;2.10;;;10.50;99.90;;;;;;5034159;28;20502;-65
2021/05/14 03:12:42;;;;;;;2.95;2.25;;;10.50;99.90;;;;;;5033899;28;20304;-65
2021/05/14 03:15:11;;;;;;;2.78;2.58;;;10.50;99.90;;;;;;5032762;28;20228;-65
2021/05/14 03:17:38;;;;;;;2.50;2.15;;;10.60;99.90;;;;;;5033904;28;20199;-66
2021/05/14 03:20:08;;;;;;;2.30;1.77;;;10.50;99.90;;;;;;5033992;28;20186;-66
2021/05/14 03:22:37;;;;;;;2.53;2.30;;;10.50;99.90;;;;;;5034507;28;20229;-65
2021/05/14 03:25:06;;;;;;;2.92;2.58;;;10.50;99.90;;;;;;5032292;28;20191;-66
2021/05/14 03:27:34;;;;;;;3.00;2.67;;;10.60;99.90;;;;;;5032130;28;20189;-65
2021/05/14 03:30:01;;;;;;;2.35;1.90;;;10.60;99.90;;;;;;5032464;28;20420;-65
2021/05/14 03:32:29;;;;;;;3.10;2.60;;;10.60;99.90;;;;;;5031958;28;20205;-65
2021/05/14 03:34:56;;;;;;;3.30;2.20;;;10.60;99.90;;;;;;5031902;28;20387;-68
2021/05/14 03:37:24;;;;;;;3.50;2.30;;;10.60;99.90;;;;;;5032201;28;20178;-65
2021/05/14 03:39:55;;;;;;;3.45;3.00;;;10.70;99.90;;;;;;5032113;28;20891;-65
2021/05/14 03:42:23;;;;;;;4.50;3.28;;;10.70;99.90;;;;;;5031649;28;20701;-65
2021/05/14 03:44:51;;;;;;;3.90;2.20;;;10.70;99.90;;;;;;5032142;28;20265;-66
2021/05/14 03:47:22;;;;;;;3.23;2.93;;;10.70;99.90;;;;;;5031972;28;20921;-65
2021/05/14 03:49:49;;;;;;;4.32;3.00;;;10.70;99.90;;;;;;5032323;28;20742;-66
2021/05/14 03:52:17;;;;;;;3.17;2.97;;;10.70;99.90;;;;;;5031294;28;20300;-66
2021/05/14 03:54:45;;;;;;;4.17;3.20;;;10.60;99.90;;;;;;5031505;28;20406;-65
2021/05/14 03:57:14;;;;;;;2.75;2.55;;;10.70;99.90;;;;;;5031551;28;20515;-65
2021/05/14 03:59:41;;;;;;;3.33;2.60;;;10.60;99.90;;;;;;5031678;28;20189;-64
2021/05/14 04:02:10;;;;;;;2.67;2.30;;;10.60;99.90;;;;;;5031620;28;20224;-66
2021/05/14 04:04:39;;;;;;;3.60;2.45;;;10.60;99.90;;;;;;5031751;28;21029;-64
2021/05/14 04:07:07;;;;;;;2.53;2.15;;;10.70;99.90;;;;;;5031546;28;20585;-65
2021/05/14 04:09:37;;;;;;;4.37;2.63;;;10.70;99.90;;;;;;5030212;28;20236;-66
2021/05/14 04:12:11;;;;;;;2.63;2.20;;;10.60;99.90;;;;;;5031505;28;20415;-64
2021/05/14 04:14:39;;;;;;;4.32;2.95;;;10.70;99.90;;;;;;5031347;28;20431;-65
2021/05/14 04:17:18;;;;;;;2.77;2.40;;;10.70;99.90;;;;;;5031287;28;20252;-65
2021/05/14 04:19:47;;;;;;;2.90;2.70;;;10.70;99.90;;;;;;5031103;28;20398;-66
2021/05/14 04:22:15;;;;;;;3.60;3.10;;;10.70;99.90;;;;;;5030716;28;20479;-66
2021/05/14 04:24:43;;;;;;;2.00;1.57;;;10.70;99.90;;;;;;5029679;28;20500;-65
2021/05/14 04:27:13;;;;;;;3.03;2.70;;;10.70;99.90;;;;;;5031516;28;20491;-65
2021/05/14 04:29:43;;;;;;;2.10;1.90;;;10.60;99.90;;;;;;5030758;28;20409;-65
2021/05/14 04:32:11;;;;;;;2.53;2.07;;;10.60;99.90;;;;;;5029921;28;20425;-64
2021/05/14 04:34:39;;;;;;;2.80;1.57;;;10.60;99.90;;;;;;5030717;28;20421;-64
2021/05/14 04:37:07;;;;;;;2.50;1.60;;;10.60;99.90;;;;;;5030696;28;20395;-64
2021/05/14 04:39:35;;;;;;;1.83;1.57;;;10.60;99.90;;;;;;5031204;28;20391;-64
2021/05/14 04:42:03;;;;;;;2.17;1.33;;;10.70;99.90;;;;;;5031230;28;20586;-64
2021/05/14 04:44:31;;;;;;;1.58;1.20;;;10.50;99.90;;;;;;5030680;28;20464;-65
2021/05/14 04:47:00;;;;;;;2.05;1.70;;;10.60;99.90;;;;;;5030875;28;20280;-66
2021/05/14 04:49:28;;;;;;;1.40;1.10;;;10.60;99.90;;;;;;5031112;28;20586;-65
2021/05/14 04:51:56;;;;;;;1.98;1.33;;;10.50;99.90;;;;;;5030939;28;20907;-65
2021/05/14 04:54:25;;;;;;;2.95;1.60;;;10.50;99.90;;;;;;5030684;28;20260;-66
2021/05/14 04:56:53;;;;;;;2.47;1.20;;;10.50;99.90;;;;;;5030825;28;20185;-66
2021/05/14 04:59:21;;;;;;;1.60;1.20;;;10.60;99.90;;;;;;5029948;28;20427;-66
2021/05/14 05:01:49;;;;;;;2.00;1.73;;;10.70;99.90;;;;;;5030579;28;20401;-66
2021/05/14 05:04:18;;;;;;;1.70;1.30;;;10.70;99.90;;;;;;5030310;28;20467;-65
2021/05/14 05:06:46;;;;;;;1.60;1.30;;;10.60;99.90;;;;;;5028941;28;20449;-67
2021/05/14 05:09:14;;;;;;;1.80;1.50;;;10.60;99.90;;;;;;5030329;28;20430;-64
2021/05/14 05:11:42;;;;;;;1.95;1.73;;;10.60;99.90;;;;;;5030092;28;20387;-65
2021/05/14 05:14:09;;;;;;;2.17;1.70;;;10.60;99.90;;;;;;5030020;28;20177;-65
2021/05/14 05:16:37;;;;;;;3.20;2.45;;;10.60;99.90;;;;;;5029861;28;20190;-66
2021/05/14 05:19:05;;;;;;;3.10;2.00;;;10.60;99.90;;;;;;5030223;28;20192;-64
2021/05/14 05:21:33;;;;;;;3.53;1.90;;;10.60;99.90;;;;;;5030043;28;20411;-64
2021/05/14 05:24:02;;;;;;;2.67;2.47;;;10.60;99.90;;;;;;5029667;28;20441;-68
2021/05/14 05:26:29;;;;;;;2.50;2.20;;;10.60;99.90;;;;;;5030160;28;20416;-65
2021/05/14 05:28:57;;;;;;;2.60;1.87;;;10.60;99.90;;;;;;5030117;28;20811;-67
2021/05/14 05:31:25;;;;;;;2.30;1.90;;;10.60;99.90;;;;;;5030261;28;20517;-64
2021/05/14 05:33:53;;;;;;;2.30;2.08;;;10.60;99.90;;;;;;5029837;28;20287;-65
2021/05/14 05:36:20;;;;;;;1.97;1.83;;;10.50;99.90;;;;;;5029544;28;20193;-65
2021/05/14 05:38:50;;;;;;;2.30;1.90;;;10.50;99.90;;;;;;5023489;28;20901;-65
2021/05/14 05:41:18;;;;;;;3.83;2.40;;;10.50;99.90;;;;;;5017314;28;20284;-66
2021/05/14 05:43:46;;;;;;;3.00;2.33;;;10.50;99.90;;;;;;5013584;28;20530;-66
2021/05/14 05:46:13;;;;;;;2.80;2.47;;;10.50;99.90;;;;;;5013776;28;20443;-67
2021/05/14 05:48:46;;;;;;;2.47;2.23;;;10.60;99.90;;;;;;5013935;28;20429;-65
2021/05/14 05:51:14;;;;;;;2.17;1.63;;;10.70;99.90;;;;;;5013611;28;20391;-67
2021/05/14 05:53:43;;;;;;;2.50;1.93;;;10.70;99.90;;;;;;5013303;28;20423;-66
2021/05/14 05:56:11;;;;;;;3.57;2.10;;;10.60;99.90;;;;;;5012719;28;20449;-63
2021/05/14 05:58:39;;;;;;;4.10;2.22;;;10.60;99.90;;;;;;5014064;28;20976;-64
2021/05/14 06:01:07;;;;;;;2.95;2.30;;;10.50;99.90;;;;;;5014066;28;20273;-64
2021/05/14 06:03:34;;;;;;;2.58;1.80;;;10.60;99.90;;;;;;5013867;28;20217;-65
2021/05/14 06:06:03;;;;;;;2.97;2.20;;;10.50;99.90;;;;;;5013693;28;20190;-65
2021/05/14 06:08:31;;;;;;;3.33;1.57;;;10.60;99.90;;;;;;5014084;28;20189;-65
2021/05/14 06:10:59;;;;;;;2.67;2.30;;;10.60;99.90;;;;;;5014085;28;20429;-65
2021/05/14 06:13:27;;;;;;;2.30;1.63;;;10.60;99.90;;;;;;5024546;28;20409;-66
2021/05/14 06:15:58;;;;;;;2.92;2.63;;;10.70;99.90;;;;;;5053527;28;20382;-65
2021/05/14 06:18:29;;;;;;;2.70;2.35;;;10.60;99.90;;;;;;5037754;28;20185;-66
2021/05/14 06:20:58;;;;;;;2.28;1.52;;;10.60;99.90;;;;;;5033391;28;20280;-65
2021/05/14 06:23:26;;;;;;;7.43;2.20;;;10.60;99.90;;;;;;5029003;28;20789;-66
2021/05/14 06:25:54;;;;;;;3.10;2.03;;;10.60;99.90;;;;;;5020333;28;20781;-64
2021/05/14 06:28:22;;;;;;;5.80;3.17;;;10.60;99.90;;;;;;5033011;28;20503;-65
2021/05/14 06:30:51;;;;;;;6.83;5.73;;;10.60;99.90;;;;;;5031417;28;20410;-65
2021/05/14 06:33:19;;;;;;;4.30;3.03;;;10.60;99.90;;;;;;5031122;28;21007;-66
2021/05/14 06:35:48;;;;;;;3.97;2.45;;;10.70;99.90;;;;;;5032514;28;20912;-66
2021/05/14 06:38:17;;;;;;;3.93;3.37;;;10.70;99.90;;;;;;5032274;28;20192;-65
2021/05/14 06:40:44;;;;;;;3.25;2.20;;;10.80;99.90;;;;;;5032304;28;20403;-66
2021/05/14 06:43:12;;;;;;;2.90;2.33;;;10.60;99.90;;;;;;5032348;28;20252;-65
2021/05/14 06:45:40;;;;;;;2.03;1.83;;;10.70;99.90;;;;;;5033379;28;20485;-66
2021/05/14 06:48:13;;;;;;;3.10;2.53;;;10.90;99.90;;;;;;5031688;28;20443;-66
2021/05/14 06:50:42;;;;;;;4.43;2.60;;;11.00;99.90;;;;;;5032823;28;20410;-66
2021/05/14 06:53:11;;;;;;;4.33;3.23;;;11.00;99.90;;;;;;5031776;28;20435;-66
2021/05/14 06:55:39;;;;;;;2.30;2.10;;;11.10;99.90;;;;;;5032238;28;20395;-67
2021/05/14 06:58:07;;;;;;;3.30;3.00;;;11.10;99.90;;;;;;5031265;28;20441;-64
2021/05/14 07:00:35;;;;;;;3.60;2.70;;;11.00;99.90;;;;;;5032364;28;20539;-65
2021/05/14 07:03:02;;;;;;;3.10;1.73;;;11.00;99.90;;;;;;5032067;28;20539;-65
2021/05/14 07:05:31;;;;;;;3.40;1.90;;;11.00;99.90;;;;;;5032758;28;20423;-65
2021/05/14 07:07:59;;;;;;;2.63;1.90;;;10.80;99.90;;;;;;5030895;28;20424;-64
2021/05/14 07:10:27;;;;;;;5.43;3.10;;;10.80;99.90;;;;;;5032465;28;20905;-65
2021/05/14 07:12:56;;;;;;;3.50;2.67;;;10.80;99.90;;;;;;5020799;28;20423;-67
2021/05/14 07:15:24;;;;;;;2.70;2.07;;;10.80;99.90;;;;;;5027547;28;20612;-66
2021/05/14 07:17:53;;;;;;;3.10;2.13;;;10.80;99.90;;;;;;5016489;28;20435;-66
2021/05/14 07:20:21;;;;;;;3.60;2.90;;;10.80;99.90;;;;;;5016509;28;20399;-65
2021/05/14 07:22:50;;;;;;;4.33;3.83;;;10.70;99.90;;;;;;5022937;28;20492;-66
2021/05/14 07:25:18;;;;;;;6.13;4.30;;;10.70;99.90;;;;;;5016775;28;20602;-67
2021/05/14 07:27:45;;;;;;;6.22;4.72;;;10.70;99.90;;;;;;5021150;28;20301;-66
2021/05/14 07:30:14;;;;;;;5.30;4.27;;;10.70;99.90;;;;;;5020215;28;20213;-64
2021/05/14 07:32:42;;;;;;;5.47;4.25;;;10.80;99.90;;;;;;5023190;28;20430;-66
2021/05/14 07:35:10;;;;;;;7.30;4.13;;;10.80;99.90;;;;;;5020564;28;20196;-66
2021/05/14 07:37:38;;;;;;;3.20;2.85;;;10.70;99.90;;;;;;5020693;28;20411;-67
2021/05/14 07:40:09;;;;;;;2.95;2.38;;;10.60;99.90;;;;;;5023535;28;20178;-66
2021/05/14 07:42:37;;;;;;;3.10;2.83;;;10.50;99.90;;;;;;5026545;28;20216;-66
2021/05/14 07:45:06;;;;;;;2.73;1.70;;;10.60;99.90;;;;;;5023578;28;20445;-66
2021/05/14 07:47:40;;;;;;;1.50;1.40;;;10.60;99.90;;;;;;5024616;28;20448;-67
2021/05/14 07:50:09;;;;;;;2.10;1.90;;;10.70;99.90;;;;;;5012416;28;20421;-66
2021/05/14 07:52:39;;;;;;;2.20;1.80;;;10.80;99.90;;;;;;5012167;28;20441;-64
2021/05/14 07:55:09;;;;;;;2.43;1.83;;;10.80;99.90;;;;;;5012122;28;20516;-66
2021/05/14 07:57:37;;;;;;;2.53;2.27;;;10.60;99.90;;;;;;5012294;28;20417;-66
2021/05/14 08:00:06;;;;;;;1.90;1.70;;;10.60;99.90;;;;;;5010489;28;20490;-66
2021/05/14 08:02:33;;;;;;;2.93;1.67;;;10.70;99.90;;;;;;5012461;28;20824;-65
2021/05/14 08:05:01;;;;;;;2.77;1.63;;;10.80;99.90;;;;;;5011953;28;20953;-65
2021/05/14 08:07:29;;;;;;;1.90;1.70;;;10.90;99.90;;;;;;5010644;28;20776;-66
2021/05/14 08:09:57;;;;;;;2.13;1.57;;;10.80;99.90;;;;;;5010719;28;20436;-67
2021/05/14 08:12:34;;;;;;;3.30;2.60;;;10.80;99.90;;;;;;5026934;28;20510;-68
2021/05/14 08:15:19;;;;;;;2.87;2.50;;;10.90;99.90;;;;;;5009410;28;21008;-65
2021/05/14 08:17:49;;;;;;;3.20;2.33;;;11.00;99.90;;;;;;5006592;28;20408;-67
2021/05/14 08:20:17;;;;;;;3.50;1.80;;;11.10;99.90;;;;;;5024621;28;20436;-69
2021/05/14 08:22:45;;;;;;;4.60;2.53;;;11.30;99.90;;;;;;5045257;22;20470;-64
2021/05/14 08:25:13;;;;;;;1.50;1.40;;;11.30;99.90;;;;;;5021963;28;20463;-63
2021/05/14 08:27:42;;;;;;;2.47;1.50;;;11.40;99.90;;;;;;5030289;28;20432;-63
2021/05/14 08:30:12;;;;;;;2.27;1.57;;;11.20;99.90;;;;;;5030379;28;20403;-64
2021/05/14 08:32:40;;;;;;;2.67;1.83;;;11.20;99.90;;;;;;5029936;28;20893;-61
2021/05/14 08:35:09;;;;;;;1.57;1.47;;;11.40;99.90;;;;;;5030056;28;20447;-65
2021/05/14 08:37:39;;;;;;;3.03;1.53;;;11.20;99.90;;;;;;5030199;28;20928;-61
2021/05/14 08:40:08;;;;;;;1.67;1.57;;;11.20;99.90;;;;;;5030030;28;20399;-63
2021/05/14 08:42:41;;;;;;;2.30;1.40;;;11.10;99.90;;;;;;5028654;28;20433;-63
2021/05/14 08:45:12;;;;;;;1.90;1.70;;;11.20;99.90;;;;;;5028792;28;20483;-62
2021/05/14 08:47:40;;;;;;;2.20;1.97;;;11.40;99.90;;;;;;5030199;28;20821;-62
2021/05/14 08:50:10;;;;;;;2.07;1.67;;;11.40;99.90;;;;;;5030700;28;20455;-64
2021/05/14 08:52:39;;;;;;;1.10;0.87;;;11.40;99.90;;;;;;5029606;28;20451;-63
2021/05/14 08:55:08;;;;;;;2.00;1.80;;;11.40;99.90;;;;;;5030101;28;20453;-63
2021/05/14 08:57:38;;;;;;;2.23;1.67;;;11.50;99.90;;;;;;5030030;28;20813;-63
2021/05/14 09:00:09;;;;;;;2.30;1.57;;;11.50;99.90;;;;;;5030147;28;20409;-63
2021/05/14 09:02:38;;;;;;;2.07;1.70;;;11.40;99.90;;;;;;5029979;28;20410;-64
2021/05/14 09:05:26;;;;;;;2.17;1.67;;;11.30;99.90;;;;;;5029907;28;20438;-63
2021/05/14 09:07:56;;;;;;;1.43;1.33;;;11.30;99.90;;;;;;5030969;28;20399;-64
2021/05/14 09:10:24;;;;;;;1.80;1.40;;;11.20;99.90;;;;;;5020811;28;20415;-64
2021/05/14 09:12:52;;;;;;;1.63;1.53;;;11.10;99.90;;;;;;5026376;28;20479;-64
2021/05/14 09:15:26;;;;;;;1.53;1.20;;;10.90;99.90;;;;;;5029802;28;20515;-64
2021/05/14 09:18:08;;;;;;;1.50;1.23;;;10.80;99.90;;;;;;5032556;28;20444;-65
2021/05/14 09:20:37;;;;;;;1.40;1.10;;;10.70;99.90;;;;;;5034220;28;20181;-63
2021/05/14 09:23:24;;;;;;;1.53;1.07;;;10.80;99.90;;;;;;5032894;28;20453;-63
2021/05/14 09:25:53;;;;;;;3.60;2.00;;;11.00;99.90;;;;;;5033623;28;20517;-64
2021/05/14 09:28:25;;;;;;;2.13;1.43;;;11.00;99.90;;;;;;5033698;28;20402;-64
2021/05/14 09:31:09;;;;;;;1.63;1.33;;;11.20;99.90;;;;;;5034776;28;20529;-62
2021/05/14 09:33:38;;;;;;;1.53;1.43;;;11.30;99.90;;;;;;5015311;28;20440;-64
2021/05/14 09:36:08;;;;;;;2.40;1.77;;;11.20;99.90;;;;;;5013856;28;20429;-64
2021/05/14 09:38:48;;;;;;;2.60;1.70;;;11.10;99.90;;;;;;5014813;28;20896;-64
2021/05/14 09:41:30;;;;;;;2.83;2.53;;;11.00;99.90;;;;;;5030137;28;20503;-63
2021/05/14 09:44:02;;;;;;;2.13;1.73;;;10.90;99.90;;;;;;5037931;28;20968;-64
2021/05/14 09:46:39;;;;;;;2.00;1.73;;;10.70;99.90;;;;;;5038253;28;20221;-64
2021/05/14 09:49:09;;;;;;;2.43;1.80;;;10.70;99.90;;;;;;5039019;28;20911;-63
2021/05/14 09:51:47;;;;;;;1.60;1.50;;;10.60;99.90;;;;;;5043135;28;20478;-65
2021/05/14 09:54:26;;;;;;;2.00;1.80;;;10.40;99.90;;;;;;5043362;28;20495;-67
2021/05/14 09:57:18;;;;;;;1.97;1.40;;;10.40;99.90;;;;;;5043621;28;20399;-66
2021/05/14 09:59:47;;;;;;;2.90;1.63;;;10.60;99.90;;;;;;5035957;28;20403;-67
2021/05/14 10:02:22;;;;;;;1.97;1.77;;;10.70;99.90;;;;;;5033091;28;20426;-65
2021/05/14 10:04:51;;;;;;;3.92;2.63;;;10.90;99.90;;;;;;5033770;28;20476;-64
2021/05/14 10:07:19;;;;;;;2.08;1.27;;;10.90;99.90;;;;;;5013952;28;20198;-64
2021/05/14 10:09:51;;;;;;;2.00;1.15;;;10.70;99.90;;;;;;5013966;28;20551;-66
2021/05/14 10:12:19;;;;;;;2.30;1.48;;;10.60;99.90;;;;;;5013547;28;20268;-64
2021/05/14 10:14:48;;;;;;;3.50;1.27;;;10.60;99.90;;;;;;5014311;28;20182;-67
2021/05/14 10:17:16;;;;;;;1.25;0.88;;;10.50;99.90;;;;;;5031998;28;20522;-66
2021/05/14 10:19:48;;;;;;;2.10;1.57;;;10.40;99.90;;;;;;5033363;28;20644;-63
2021/05/14 10:22:17;;;;;;;1.65;1.05;;;10.40;99.90;;;;;;5033782;28;20442;-67
2021/05/14 10:24:47;;;;;;;1.52;1.30;;;10.20;99.90;;;;;;5036373;28;20288;-63
2021/05/14 10:27:20;;;;;;;1.40;1.30;;;10.20;99.90;;;;;;5033507;28;20185;-64
2021/05/14 10:29:50;;;;;;;1.85;1.58;;;10.20;99.90;;;;;;5031928;28;20511;-65
2021/05/14 10:32:55;;;;;;;1.63;1.40;;;10.30;99.90;;;;;;5033054;28;20216;-65
2021/05/14 10:35:26;;;;;;;3.30;1.83;;;10.40;99.90;;;;;;5032901;28;20431;-65
2021/05/14 10:37:55;;;;;;;2.87;2.53;;;10.40;99.90;;;;;;5033264;28;20942;-64
2021/05/14 10:40:43;;;;;;;2.60;1.67;;;10.40;99.90;;;;;;5033170;28;20413;-66
2021/05/14 10:43:13;;;;;;;3.03;1.90;;;10.40;99.90;;;;;;5032800;28;20439;-65
2021/05/14 10:45:42;;;;;;;3.00;1.88;;;10.30;99.90;;;;;;5032558;28;20216;-66
2021/05/14 10:48:17;;;;;;;3.10;2.10;;;10.40;99.90;;;;;;5033170;28;20228;-65
2021/05/14 10:50:50;;;;;;;3.07;2.77;;;10.80;99.90;;;;;;5033088;28;20243;-64
2021/05/14 10:53:28;;;;;;;5.60;1.48;;;11.00;99.90;;;;;;5033234;28;20458;-67
2021/05/14 10:56:25;;;;;;;6.30;2.73;;;10.90;99.90;;;;;;5034815;28;20197;-62
2021/05/14 10:58:54;;;;;;;2.10;1.40;;;10.90;99.90;;;;;;5032985;28;20802;-65
2021/05/14 11:01:40;;;;;;;3.00;1.40;;;11.20;99.90;;;;;;5032435;28;20547;-65
2021/05/14 11:04:39;;;;;;;3.70;2.87;;;11.20;99.90;;;;;;5031973;28;20420;-65
2021/05/14 11:07:28;;;;;;;4.93;2.53;;;11.20;99.90;;;;;;5028643;28;20642;-68
2021/05/14 11:10:30;;;;;;;2.30;2.10;;;11.30;99.90;;;;;;5032206;28;20399;-65
2021/05/14 11:12:58;;;;;;;5.60;2.53;;;11.50;99.90;;;;;;5032131;28;20534;-65
2021/05/14 11:15:35;;;;;;;3.63;2.10;;;11.70;99.90;;;;;;5032708;28;20478;-65
2021/05/14 11:18:25;;;;;;;1.50;1.30;;;12.00;99.90;;;;;;5032587;28;20722;-66
2021/05/14 11:20:56;;;;;;;1.60;1.50;;;11.90;99.90;;;;;;5032319;28;20486;-65
2021/05/14 11:23:38;;;;;;;2.03;1.80;;;11.80;99.90;;;;;;5031918;28;20462;-64
2021/05/14 11:26:07;;;;;;;1.97;1.70;;;11.80;99.90;;;;;;5032308;28;20434;-65
2021/05/14 11:28:43;;;;;;;2.30;1.83;;;11.90;99.90;;;;;;5031788;28;20426;-65
2021/05/14 11:31:19;;;;;;;2.20;1.87;;;12.30;99.90;;;;;;5032413;28;20452;-65
2021/05/14 11:33:48;;;;;;;2.47;1.87;;;12.20;99.90;;;;;;5032055;28;20446;-66
2021/05/14 11:36:20;;;;;;;3.30;3.00;;;12.00;99.90;;;;;;5030727;28;20448;-64
2021/05/14 11:38:49;;;;;;;4.13;3.13;;;12.20;99.90;;;;;;5030298;28;20422;-64
2021/05/14 11:41:23;;;;;;;4.20;2.20;;;12.70;99.90;;;;;;5027038;28;20482;-65
2021/05/14 11:43:56;;;;;;;4.93;2.67;;;12.60;99.90;;;;;;5028792;28;20494;-65
2021/05/14 11:46:25;;;;;;;3.03;1.73;;;12.70;99.90;;;;;;5031488;28;20500;-64
2021/05/14 11:48:53;;;;;;;2.90;2.50;;;12.60;99.90;;;;;;5032466;28;20387;-65
2021/05/14 11:51:21;;;;;;;2.67;1.70;;;12.30;99.90;;;;;;5032012;28;20932;-65
2021/05/14 11:53:50;;;;;;;4.20;2.20;;;12.20;99.90;;;;;;5031672;28;20419;-64
2021/05/14 11:56:17;;;;;;;4.07;2.30;;;12.10;99.90;;;;;;5032111;28;20698;-67
2021/05/14 11:58:45;;;;;;;2.13;1.93;;;11.80;99.90;;;;;;5032032;28;20391;-66
2021/05/14 12:01:13;;;;;;;7.17;2.53;;;11.60;99.90;;;;;;5031982;28;20399;-65
2021/05/14 12:03:44;;;;;;;4.40;2.63;;;11.50;99.90;;;;;;5031781;28;20451;-64
2021/05/14 12:06:12;;;;;;;4.57;3.40;;;11.20;99.90;;;;;;5031626;28;20460;-65
2021/05/14 12:08:39;;;;;;;4.70;2.10;;;11.30;99.90;;;;;;5030424;28;20416;-65
2021/05/14 12:11:12;;;;;;;5.10;2.00;;;11.40;99.90;;;;;;5031909;28;20502;-66
2021/05/14 12:13:41;;;;;;;3.67;2.33;;;11.40;99.90;;;;;;5031701;28;20415;-66
2021/05/14 12:16:11;;;;;;;6.30;2.53;;;11.40;99.90;;;;;;5031644;28;20932;-65
2021/05/14 12:18:44;;;;;;;5.20;3.03;;;11.10;99.90;;;;;;5030813;28;20854;-66
2021/05/14 12:21:22;;;;;;;4.70;2.87;;;10.80;99.90;;;;;;5031410;28;20401;-65
2021/05/14 12:23:50;;;;;;;2.92;2.05;;;10.80;99.90;;;;;;5031540;28;20458;-65
2021/05/14 12:26:18;;;;;;;2.90;2.40;;;10.80;99.90;;;;;;5032133;28;20243;-63
2021/05/14 12:28:48;;;;;;;4.63;3.00;;;11.10;99.90;;;;;;5034304;28;20778;-66
2021/05/14 12:31:23;;;;;;;3.30;2.60;;;11.00;99.90;;;;;;5034914;28;20399;-64
2021/05/14 12:33:53;;;;;;;3.83;2.85;;;10.90;99.90;;;;;;5032454;28;20572;-65
2021/05/14 12:36:25;;;;;;;7.13;2.65;;;10.70;99.90;;;;;;5032753;28;20178;-63
2021/05/14 12:38:54;;;;;;;2.75;2.45;;;10.60;99.90;;;;;;5031369;28;20590;-61
2021/05/14 12:41:28;;;;;;;6.05;2.33;;;10.40;99.90;;;;;;5031109;28;20236;-59
2021/05/14 12:44:11;;;;;;;4.88;2.65;;;10.40;99.90;;;;;;5030886;28;20244;-64
2021/05/14 12:46:54;;;;;;;2.10;1.87;;;10.60;99.90;;;;;;5031095;28;20292;-64
2021/05/14 12:49:23;;;;;;;3.30;2.35;;;10.80;99.90;;;;;;5031408;28;20395;-66
2021/05/14 12:52:00;;;;;;;4.85;2.80;;;10.80;99.90;;;;;;5030243;28;20193;-63
2021/05/14 12:54:28;;;;;;;2.60;2.05;;;10.90;99.90;;;;;;5031019;28;20280;-64
2021/05/14 12:57:22;;;;;;;2.60;1.90;;;10.90;99.90;;;;;;5030053;28;20204;-65
2021/05/14 12:59:50;;;;;;;3.60;2.20;;;10.70;99.90;;;;;;5029798;28;20490;-66
2021/05/14 13:02:20;;;;;;;3.33;2.63;;;10.70;99.90;;;;;;5030863;28;21004;-68